Time;durP1;ratioP1;P1;durP2;ratioP2;P2;SDS_P1;SDS_P2;PMS_P1;PMS_P2;Temp;Humidity;BMP_temperature;BMP_pressure;BME280_temperature;BME280_humidity;BME280_pressure;Samples;Min_cycle;Max_cycle;Signal;HPM_P1;HPM_P2
2023/11/05 00:02:12;;;;;;;0.60;0.60;;;;;;;8.36;100.00;96737.28;6132973;23;20163;-79
2023/11/05 00:04:42;;;;;;;0.70;0.40;;;;;;;8.37;100.00;96739.66;6131806;23;20160;-79
2023/11/05 00:07:13;;;;;;;0.87;0.63;;;;;;;8.40;100.00;96738.31;6132624;23;20163;-79
2023/11/05 00:09:42;;;;;;;0.60;0.50;;;;;;;8.42;100.00;96727.38;6106807;23;20202;-79
2023/11/05 00:12:10;;;;;;;0.60;0.60;;;;;;;8.45;100.00;96732.94;6106692;23;20203;-79
2023/11/05 00:14:39;;;;;;;1.80;0.50;;;;;;;8.53;100.00;96724.38;6132011;23;20175;-79
2023/11/05 00:17:06;;;;;;;1.77;0.70;;;;;;;8.55;100.00;96729.44;6131943;23;20167;-79
2023/11/05 00:19:38;;;;;;;1.03;0.30;;;;;;;8.64;100.00;96741.09;6132286;23;20148;-79
2023/11/05 00:22:07;;;;;;;0.57;0.40;;;;;;;8.68;100.00;96753.63;6131509;23;20168;-79
2023/11/05 00:24:36;;;;;;;0.50;0.50;;;;;;;8.75;100.00;96767.47;6131986;23;20171;-79
2023/11/05 00:27:09;;;;;;;1.60;0.97;;;;;;;8.84;100.00;96773.03;6106088;23;20254;-79
2023/11/05 00:29:41;;;;;;;1.80;1.17;;;;;;;8.98;100.00;96774.00;6107289;23;20191;-79
2023/11/05 00:32:11;;;;;;;1.17;0.77;;;;;;;9.01;100.00;96778.75;6105517;23;20164;-79
2023/11/05 00:34:39;;;;;;;0.70;0.70;;;;;;;9.09;100.00;96786.19;6131714;23;20609;-79
2023/11/05 00:37:10;;;;;;;0.70;0.60;;;;;;;9.17;100.00;96796.28;6130716;23;20187;-78
2023/11/05 00:39:43;;;;;;;0.73;0.60;;;;;;;9.23;100.00;96799.72;6133757;23;20195;-80
2023/11/05 00:42:12;;;;;;;1.27;0.70;;;;;;;9.29;100.00;96801.25;6110191;23;20172;-79
2023/11/05 00:44:42;;;;;;;0.90;0.80;;;;;;;9.17;100.00;96817.66;6110519;23;20195;-79
2023/11/05 00:47:10;;;;;;;1.20;0.50;;;;;;;9.18;100.00;96813.91;6138914;23;20163;-79
2023/11/05 00:49:38;;;;;;;0.80;0.80;;;;;;;9.24;100.00;96810.09;6137872;23;20183;-79
2023/11/05 00:52:10;;;;;;;0.77;0.77;;;;;;;9.13;100.00;96813.94;6136135;23;20168;-79
2023/11/05 00:54:38;;;;;;;2.03;0.90;;;;;;;9.04;100.00;96810.28;6110098;23;20178;-79
2023/11/05 00:57:06;;;;;;;1.00;0.70;;;;;;;8.97;100.00;96806.31;6108058;23;20168;-79
2023/11/05 00:59:34;;;;;;;1.57;0.70;;;;;;;8.92;100.00;96798.31;6131953;23;20168;-79
2023/11/05 01:02:05;;;;;;;1.00;0.70;;;;;;;9.00;100.00;96792.41;6130645;23;20239;-78
2023/11/05 01:04:33;;;;;;;1.80;0.80;;;;;;;8.87;100.00;96801.81;6103390;23;20198;-78
2023/11/05 01:07:02;;;;;;;1.60;0.67;;;;;;;8.87;100.00;96801.03;6129071;23;20167;-78
2023/11/05 01:09:32;;;;;;;0.97;0.77;;;;;;;8.76;100.00;96785.09;6128497;23;20184;-77
2023/11/05 01:12:02;;;;;;;1.30;1.07;;;;;;;8.70;100.00;96780.84;6102174;23;20619;-78
2023/11/05 01:14:31;;;;;;;1.80;1.37;;;;;;;8.62;100.00;96776.09;6102394;23;20167;-78
2023/11/05 01:16:59;;;;;;;1.43;1.00;;;;;;;8.53;100.00;96764.41;6128002;23;20168;-78
2023/11/05 01:19:27;;;;;;;1.07;1.00;;;;;;;8.55;100.00;96766.78;6127758;23;20171;-78
2023/11/05 01:21:59;;;;;;;1.43;1.03;;;;;;;8.40;100.00;96751.66;6127865;23;20219;-78
2023/11/05 01:24:30;;;;;;;2.27;1.13;;;;;;;8.45;100.00;96751.63;6127896;23;20187;-78
2023/11/05 01:27:02;;;;;;;2.63;1.23;;;;;;;8.37;100.00;96745.00;6128158;23;20170;-78
2023/11/05 01:29:32;;;;;;;1.13;0.90;;;;;;;8.30;100.00;96749.84;6102995;23;20192;-78
2023/11/05 01:32:08;;;;;;;1.60;0.90;;;;;;;8.28;100.00;96732.50;6130013;23;20251;-78
2023/11/05 01:34:40;;;;;;;1.93;1.07;;;;;;;8.26;100.00;96723.94;6103359;23;20160;-78
2023/11/05 01:37:16;;;;;;;0.80;0.70;;;;;;;8.17;100.00;96707.72;6130271;23;20689;-78
2023/11/05 01:39:47;;;;;;;1.17;0.80;;;;;;;8.16;100.00;96705.34;6129608;23;20222;-78
2023/11/05 01:42:16;;;;;;;0.63;0.50;;;;;;;8.06;100.00;96711.53;6129384;23;20160;-78
2023/11/05 01:44:45;;;;;;;0.60;0.60;;;;;;;8.04;100.00;96703.00;6129075;23;20243;-78
2023/11/05 01:47:18;;;;;;;1.17;0.60;;;;;;;7.99;100.00;96708.34;6128862;23;20638;-78
2023/11/05 01:49:47;;;;;;;1.90;0.77;;;;;;;7.94;100.00;96706.50;6127436;23;20207;-78
2023/11/05 01:52:23;;;;;;;0.50;0.50;;;;;;;7.89;100.00;96697.72;6128622;23;20195;-78
2023/11/05 01:54:51;;;;;;;1.00;0.90;;;;;;;7.90;100.00;96696.66;6103728;23;20167;-78
2023/11/05 01:57:19;;;;;;;1.30;0.70;;;;;;;7.92;100.00;96691.88;6129437;23;20195;-78
2023/11/05 01:59:46;;;;;;;0.63;0.50;;;;;;;7.88;100.00;96694.28;6102570;23;20175;-79
2023/11/05 02:02:18;;;;;;;1.10;0.60;;;;;;;7.84;100.00;96677.22;6128627;23;20171;-78
2023/11/05 02:04:49;;;;;;;1.03;0.70;;;;;;;7.90;100.00;96678.81;6104353;23;20154;-78
2023/11/05 02:07:21;;;;;;;0.60;0.60;;;;;;;7.86;100.00;96660.97;6103131;23;20170;-78
2023/11/05 02:09:50;;;;;;;1.00;0.60;;;;;;;7.93;100.00;96670.25;6102808;23;20274;-78
2023/11/05 02:12:20;;;;;;;1.57;0.77;;;;;;;7.92;100.00;96668.69;6129065;23;20186;-77
2023/11/05 02:14:52;;;;;;;1.27;1.00;;;;;;;7.92;100.00;96662.53;6103945;23;20168;-78
2023/11/05 02:17:21;;;;;;;1.60;0.87;;;;;;;7.98;100.00;96648.91;6129135;23;20167;-78
2023/11/05 02:19:51;;;;;;;1.97;0.90;;;;;;;7.93;100.00;96651.59;6128433;23;20172;-77
2023/11/05 02:22:21;;;;;;;2.03;0.90;;;;;;;8.02;100.00;96643.03;6128566;23;20168;-78
2023/11/05 02:24:52;;;;;;;1.10;1.00;;;;;;;8.04;100.00;96649.69;6078601;23;20199;-78
2023/11/05 02:27:27;;;;;;;1.77;1.07;;;;;;;8.09;100.00;96649.66;6128766;23;20191;-78
2023/11/05 02:29:59;;;;;;;1.40;0.90;;;;;;;8.20;100.00;96642.41;6126643;23;20198;-78
2023/11/05 02:32:29;;;;;;;2.67;1.00;;;;;;;8.19;100.00;96630.13;6102376;23;20164;-78
2023/11/05 02:35:01;;;;;;;1.10;1.00;;;;;;;8.21;100.00;96633.31;6103115;23;20622;-78
2023/11/05 02:37:30;;;;;;;2.07;0.80;;;;;;;8.21;100.00;96650.09;6128531;23;20173;-78
2023/11/05 02:40:07;;;;;;;1.73;1.17;;;;;;;8.20;100.00;96656.53;6128106;23;20191;-78
2023/11/05 02:42:36;;;;;;;2.03;0.90;;;;;;;8.20;100.00;96661.06;6102220;23;20607;-78
2023/11/05 02:45:08;;;;;;;1.57;0.97;;;;;;;8.19;100.00;96654.94;6103452;23;20210;-78
2023/11/05 02:47:36;;;;;;;0.80;0.60;;;;;;;8.20;100.00;96656.53;6129123;23;20178;-78
2023/11/05 02:50:06;;;;;;;1.10;0.97;;;;;;;8.23;100.00;96652.50;6128721;23;20218;-78
2023/11/05 02:52:41;;;;;;;1.40;0.97;;;;;;;8.30;100.00;96653.84;6128874;23;20218;-78
2023/11/05 02:55:10;;;;;;;0.80;0.80;;;;;;;8.35;100.00;96645.78;6103717;23;20194;-79
2023/11/05 02:57:40;;;;;;;1.50;1.00;;;;;;;8.38;100.00;96644.44;6103447;23;20168;-78
2023/11/05 03:00:10;;;;;;;1.27;0.90;;;;;;;8.40;100.00;96652.94;6128468;23;20195;-78
2023/11/05 03:02:38;;;;;;;2.67;0.90;;;;;;;8.41;100.00;96651.88;6128281;23;20603;-78
2023/11/05 03:05:07;;;;;;;1.00;0.90;;;;;;;8.49;100.00;96647.84;6128758;23;20200;-77
2023/11/05 03:07:43;;;;;;;1.83;1.10;;;;;;;8.45;100.00;96650.25;6128837;23;20619;-78
2023/11/05 03:10:11;;;;;;;2.03;1.43;;;;;;;8.53;100.00;96647.00;6129642;23;20188;-78
2023/11/05 03:12:51;;;;;;;1.50;1.00;;;;;;;8.63;100.00;96648.81;6128446;23;20222;-78
2023/11/05 03:15:21;;;;;;;2.50;1.20;;;;;;;8.66;100.00;96648.22;6102404;23;20167;-78
2023/11/05 03:17:49;;;;;;;3.07;1.17;;;;;;;8.59;100.00;96631.72;6128369;23;20171;-78
2023/11/05 03:20:21;;;;;;;2.10;1.10;;;;;;;8.45;100.00;96623.56;6103147;23;20160;-78
2023/11/05 03:22:50;;;;;;;2.30;1.30;;;;;;;8.37;100.00;96619.63;6102154;23;20172;-78
2023/11/05 03:25:19;;;;;;;2.60;1.50;;;;;;;8.40;100.00;96612.94;6127881;23;20235;-78
2023/11/05 03:27:47;;;;;;;3.43;1.70;;;;;;;8.40;100.00;96624.41;6127080;23;20167;-78
2023/11/05 03:30:16;;;;;;;3.13;1.73;;;;;;;8.40;100.00;96615.59;6101843;23;20282;-78
2023/11/05 03:32:49;;;;;;;4.57;1.90;;;;;;;8.44;100.00;96621.19;6128113;23;20198;-77
2023/11/05 03:35:18;;;;;;;6.93;2.13;;;;;;;8.49;100.00;96624.59;6127825;23;20151;-78
2023/11/05 03:37:47;;;;;;;2.30;1.50;;;;;;;8.39;100.00;96627.38;6102599;23;20208;-77
2023/11/05 03:40:15;;;;;;;2.27;1.50;;;;;;;8.36;100.00;96631.38;6127860;23;20191;-78
2023/11/05 03:42:43;;;;;;;2.93;1.53;;;;;;;8.39;100.00;96635.38;6128037;23;20164;-78
2023/11/05 03:45:15;;;;;;;2.07;1.47;;;;;;;8.34;100.00;96640.72;6127982;23;20156;-77
2023/11/05 03:47:44;;;;;;;2.63;1.43;;;;;;;8.35;100.00;96637.78;6127540;23;20163;-78
2023/11/05 03:50:15;;;;;;;3.27;1.40;;;;;;;8.27;100.00;96633.00;6127687;23;20180;-78
2023/11/05 03:52:44;;;;;;;3.13;1.60;;;;;;;8.28;100.00;96618.59;6127452;23;20190;-78
2023/11/05 03:55:14;;;;;;;4.27;1.70;;;;;;;8.24;100.00;96617.56;6127760;23;20156;-78
2023/11/05 03:57:45;;;;;;;2.57;1.60;;;;;;;8.27;100.00;96622.34;6103035;23;20167;-78
2023/11/05 04:00:15;;;;;;;2.63;1.80;;;;;;;8.23;100.00;96623.16;6127618;23;20219;-77
2023/11/05 04:02:45;;;;;;;4.30;1.70;;;;;;;8.20;100.00;96607.72;6127046;23;20170;-78
2023/11/05 04:05:15;;;;;;;1.83;1.37;;;;;;;8.18;100.00;96610.66;6102337;23;20167;-77
2023/11/05 04:07:43;;;;;;;2.17;1.50;;;;;;;8.16;100.00;96602.16;6127155;23;20170;-77
2023/11/05 04:10:15;;;;;;;2.33;1.60;;;;;;;8.15;100.00;96594.44;6127343;23;20176;-77
2023/11/05 04:12:43;;;;;;;1.97;1.50;;;;;;;8.14;100.00;96588.28;6126711;23;20164;-77
2023/11/05 04:15:13;;;;;;;3.10;1.70;;;;;;;8.12;100.00;96585.09;6127335;23;20166;-78
2023/11/05 04:17:42;;;;;;;2.90;1.70;;;;;;;8.11;100.00;96585.38;6127511;23;20195;-78
2023/11/05 04:20:14;;;;;;;3.27;1.77;;;;;;;8.10;100.00;96589.91;6127611;23;20148;-77
2023/11/05 04:22:47;;;;;;;3.13;1.70;;;;;;;8.09;100.00;96603.53;6102627;23;20607;-77
2023/11/05 04:25:15;;;;;;;2.47;1.50;;;;;;;8.06;100.00;96599.56;6127116;23;20191;-77
2023/11/05 04:27:44;;;;;;;3.27;1.60;;;;;;;8.09;100.00;96603.53;6127294;23;20246;-77
2023/11/05 04:30:14;;;;;;;2.13;1.67;;;;;;;8.08;100.00;96613.38;6127036;23;20183;-77
2023/11/05 04:32:52;;;;;;;2.37;1.60;;;;;;;8.07;100.00;96609.13;6127148;23;20209;-78
2023/11/05 04:35:28;;;;;;;2.97;1.50;;;;;;;8.07;100.00;96608.34;6127609;23;20222;-78
2023/11/05 04:37:56;;;;;;;3.60;1.90;;;;;;;8.06;100.00;96614.75;6127400;23;20689;-78
2023/11/05 04:40:24;;;;;;;4.23;3.00;;;;;;;8.04;100.00;96616.88;6101182;23;20206;-77
2023/11/05 04:42:52;;;;;;;4.53;2.57;;;;;;;8.03;100.00;96608.09;6127151;23;20223;-78
2023/11/05 04:45:20;;;;;;;3.13;2.30;;;;;;;8.04;100.00;96600.88;6126900;23;20168;-77
2023/11/05 04:47:55;;;;;;;4.50;3.07;;;;;;;8.01;100.00;96596.13;6127131;23;20239;-77
2023/11/05 04:50:33;;;;;;;2.63;2.03;;;;;;;7.99;100.00;96588.38;6127571;23;20178;-78
2023/11/05 04:53:05;;;;;;;2.90;2.20;;;;;;;7.93;100.00;96578.84;6126805;23;20172;-78
2023/11/05 04:55:37;;;;;;;3.37;2.63;;;;;;;7.90;100.00;96574.84;6127290;23;20175;-78
2023/11/05 04:58:06;;;;;;;4.53;2.37;;;;;;;7.87;100.00;96556.75;6127028;23;20171;-77
2023/11/05 05:00:35;;;;;;;4.07;2.50;;;;;;;7.87;100.00;96561.28;6127405;23;20167;-78
2023/11/05 05:03:03;;;;;;;2.63;2.40;;;;;;;7.86;100.00;96554.34;6127410;23;20231;-77
2023/11/05 05:05:37;;;;;;;3.63;3.00;;;;;;;7.85;100.00;96569.53;6128891;23;20210;-78
2023/11/05 05:08:06;;;;;;;2.60;2.40;;;;;;;7.87;100.00;96570.06;6129280;23;20215;-78
2023/11/05 05:10:36;;;;;;;2.83;2.23;;;;;;;7.88;100.00;96563.69;6128970;23;20183;-78
2023/11/05 05:13:04;;;;;;;5.20;2.40;;;;;;;7.88;100.00;96571.69;6129179;23;20163;-77
2023/11/05 05:15:35;;;;;;;3.20;2.30;;;;;;;7.89;100.00;96565.25;6128888;23;20214;-77
2023/11/05 05:18:06;;;;;;;2.30;1.97;;;;;;;7.91;100.00;96572.97;6129357;23;20164;-78
2023/11/05 05:20:35;;;;;;;4.00;2.33;;;;;;;7.91;100.00;96568.44;6129205;23;20202;-77
2023/11/05 05:23:05;;;;;;;4.27;3.43;;;;;;;7.92;100.00;96566.59;6128857;23;20183;-78
2023/11/05 05:25:34;;;;;;;4.77;2.80;;;;;;;7.91;100.00;96565.78;6128936;23;20152;-78
2023/11/05 05:28:04;;;;;;;4.20;3.30;;;;;;;7.90;100.00;96558.84;6128808;23;20164;-79
2023/11/05 05:30:34;;;;;;;4.97;3.10;;;;;;;7.91;100.00;96559.66;6129529;23;20214;-78
2023/11/05 05:33:04;;;;;;;3.43;2.70;;;;;;;7.89;100.00;96554.59;6079853;23;20171;-77
2023/11/05 05:35:33;;;;;;;3.07;2.60;;;;;;;7.90;100.00;96552.72;6129631;23;20151;-77
2023/11/05 05:38:10;;;;;;;3.53;3.10;;;;;;;7.89;100.00;96557.25;6129104;23;20221;-78
2023/11/05 05:40:39;;;;;;;3.97;3.00;;;;;;;7.90;100.00;96571.38;6129116;23;20638;-78
2023/11/05 05:43:07;;;;;;;5.77;3.97;;;;;;;7.88;100.00;96584.19;6128849;23;20669;-78
2023/11/05 05:45:36;;;;;;;4.20;3.53;;;;;;;7.87;100.00;96593.25;6129080;23;20188;-77
2023/11/05 05:48:06;;;;;;;2.83;2.30;;;;;;;7.88;100.00;96606.31;6127052;23;20223;-78
2023/11/05 05:50:35;;;;;;;2.20;2.00;;;;;;;7.87;100.00;96628.72;6102973;23;20186;-78
2023/11/05 05:53:06;;;;;;;2.47;2.00;;;;;;;7.87;100.00;96639.38;6126950;23;20174;-77
2023/11/05 05:55:35;;;;;;;2.20;1.77;;;;;;;7.88;100.00;96638.31;6128491;23;20168;-78
2023/11/05 05:58:07;;;;;;;3.00;2.13;;;;;;;7.88;100.00;96643.66;6129039;23;20175;-78
2023/11/05 06:00:37;;;;;;;3.20;1.90;;;;;;;7.88;100.00;96643.66;6127569;23;20164;-78
2023/11/05 06:03:05;;;;;;;2.57;1.70;;;;;;;7.87;100.00;96642.03;6128051;23;20334;-79
2023/11/05 06:05:35;;;;;;;2.50;1.60;;;;;;;7.85;100.00;96643.38;6128024;23;20251;-78
2023/11/05 06:08:05;;;;;;;2.70;1.53;;;;;;;7.82;100.00;96635.94;6128625;23;20172;-78
2023/11/05 06:10:37;;;;;;;3.20;1.60;;;;;;;7.82;100.00;96635.94;6128724;23;20179;-78
2023/11/05 06:13:07;;;;;;;1.63;1.40;;;;;;;7.79;100.00;96623.94;6128315;23;20203;-78
2023/11/05 06:15:40;;;;;;;2.83;1.27;;;;;;;7.76;100.00;96616.50;6127758;23;20148;-79
2023/11/05 06:18:10;;;;;;;3.70;1.80;;;;;;;7.75;100.00;96611.44;6128241;23;20164;-79
2023/11/05 06:20:39;;;;;;;1.73;1.50;;;;;;;7.76;100.00;96597.84;6128409;23;20164;-78
2023/11/05 06:23:07;;;;;;;3.27;1.30;;;;;;;7.71;100.00;96583.75;6102997;23;20223;-78
2023/11/05 06:25:41;;;;;;;2.57;1.07;;;;;;;7.71;100.00;96581.09;6128572;23;20231;-78
2023/11/05 06:28:16;;;;;;;1.70;1.00;;;;;;;7.69;100.00;96573.38;6128243;23;20614;-77
2023/11/05 06:30:44;;;;;;;1.67;1.30;;;;;;;7.68;100.00;96566.44;6127724;23;20215;-78
2023/11/05 06:33:17;;;;;;;3.90;1.80;;;;;;;7.68;100.00;96571.78;6128194;23;20152;-78
2023/11/05 06:35:50;;;;;;;3.90;2.50;;;;;;;7.69;100.00;96583.25;6128303;23;20168;-78
2023/11/05 06:38:19;;;;;;;4.73;2.90;;;;;;;7.68;100.00;96547.00;6128460;23;20206;-78
2023/11/05 06:40:47;;;;;;;3.33;1.90;;;;;;;7.66;100.00;96515.28;6121660;23;20192;-78
2023/11/05 06:43:15;;;;;;;4.00;1.80;;;;;;;7.74;100.00;96527.25;6098767;23;20191;-77
2023/11/05 06:45:46;;;;;;;5.13;2.30;;;;;;;7.82;100.00;96543.44;6098830;23;20215;-78
2023/11/05 06:48:18;;;;;;;15.60;8.70;;;;;;;7.88;100.00;96570.88;6099181;23;20206;-78
2023/11/05 06:50:47;;;;;;;12.87;6.13;;;;;;;7.88;100.00;96558.34;6098968;23;20192;-77
2023/11/05 06:53:16;;;;;;;2.43;1.50;;;;;;;7.87;100.00;96567.41;6098971;23;20188;-78
2023/11/05 06:55:49;;;;;;;1.97;1.10;;;;;;;7.88;100.00;96520.22;6099487;23;20171;-78
2023/11/05 06:58:25;;;;;;;1.50;1.00;;;;;;;7.95;100.00;96502.03;6099580;23;20171;-78
2023/11/05 07:00:56;;;;;;;1.93;1.00;;;;;;;8.00;100.00;96463.88;6099222;23;20184;-78
2023/11/05 07:03:27;;;;;;;2.20;0.80;;;;;;;8.05;100.00;96397.97;6098815;23;20179;-78
2023/11/05 07:05:57;;;;;;;1.73;0.90;;;;;;;8.08;100.00;96352.09;6098083;23;20253;-78
2023/11/05 07:08:29;;;;;;;2.50;1.10;;;;;;;8.25;100.00;96367.66;6121314;23;20612;-78
2023/11/05 07:11:00;;;;;;;1.73;0.73;;;;;;;8.49;100.00;96394.38;6098161;23;20219;-78
2023/11/05 07:13:31;;;;;;;1.77;1.03;;;;;;;8.72;100.00;96418.38;6097877;23;20215;-78
2023/11/05 07:16:00;;;;;;;1.67;1.27;;;;;;;8.80;100.00;96436.44;6096892;23;20172;-78
2023/11/05 07:18:44;;;;;;;1.13;1.00;;;;;;;8.88;100.00;96450.22;6098419;23;20141;-77
2023/11/05 07:21:18;;;;;;;2.13;0.97;;;;;;;8.90;100.00;96475.56;6098469;23;20157;-79
2023/11/05 07:23:47;;;;;;;1.03;0.93;;;;;;;8.89;100.00;96506.00;6098629;23;20619;-78
2023/11/05 07:26:15;;;;;;;1.90;1.03;;;;;;;8.91;100.00;96505.72;6098106;23;20199;-78
2023/11/05 07:28:44;;;;;;;2.00;0.80;;;;;;;8.95;100.00;96504.06;6098549;23;20187;-78
2023/11/05 07:31:16;;;;;;;1.63;1.00;;;;;;;8.98;100.00;96487.47;6097852;23;20216;-77
2023/11/05 07:33:47;;;;;;;1.50;1.10;;;;;;;9.03;100.00;96474.84;6097800;23;20267;-77
2023/11/05 07:36:15;;;;;;;1.27;1.00;;;;;;;9.12;100.00;96483.03;6120777;23;20520;-77
2023/11/05 07:38:45;;;;;;;1.07;0.87;;;;;;;9.22;100.00;96488.25;6097958;23;20172;-78
2023/11/05 07:41:15;;;;;;;2.60;1.40;;;;;;;9.27;100.00;96505.00;6097717;23;20211;-78
2023/11/05 07:43:43;;;;;;;1.53;1.10;;;;;;;9.26;100.00;96526.66;6097841;23;20172;-78
2023/11/05 07:46:11;;;;;;;1.07;0.97;;;;;;;9.22;100.00;96534.47;6097967;23;20207;-77
2023/11/05 07:48:41;;;;;;;1.77;1.40;;;;;;;9.18;100.00;96528.09;6097534;23;20153;-78
2023/11/05 07:51:09;;;;;;;4.30;2.50;;;;;;;9.14;100.00;96531.63;6098584;23;20263;-78
2023/11/05 07:53:41;;;;;;;6.23;3.93;;;;;;;9.10;100.00;96518.03;6096596;23;20153;-77
2023/11/05 07:56:11;;;;;;;10.57;6.00;;;;;;;9.09;100.00;96516.47;6097552;23;20165;-78
2023/11/05 07:58:40;;;;;;;8.10;4.40;;;;;;;9.04;100.00;96505.84;6097459;23;20171;-77
2023/11/05 08:01:07;;;;;;;4.37;2.63;;;;;;;9.04;100.00;96481.81;6098301;23;20679;-78
2023/11/05 08:03:34;;;;;;;2.17;1.97;;;;;;;9.01;100.00;96479.69;6096549;23;20164;-78
2023/11/05 08:06:02;;;;;;;2.60;2.03;;;;;;;9.00;100.00;96470.09;6097340;23;20277;-78
2023/11/05 08:08:33;;;;;;;2.27;1.70;;;;;;;9.08;100.00;96447.31;6097897;23;20152;-78
2023/11/05 08:11:08;;;;;;;9.37;4.40;;;;;;;9.33;100.00;96414.13;6096140;23;20559;-78
2023/11/05 08:13:38;;;;;;;6.13;3.40;;;;;;;9.70;100.00;96414.84;6098378;23;20191;-78
2023/11/05 08:16:11;;;;;;;5.73;3.30;;;;;;;10.09;100.00;96403.00;6098201;23;20172;-77
2023/11/05 08:18:41;;;;;;;2.57;2.10;;;;;;;10.50;100.00;96405.75;6098393;23;20196;-80
2023/11/05 08:21:08;;;;;;;1.80;1.23;;;;;;;10.73;100.00;96388.69;6098465;23;20172;-78
2023/11/05 08:23:45;;;;;;;1.50;1.30;;;;;;;10.85;100.00;96359.53;6096745;23;20198;-77
2023/11/05 08:26:17;;;;;;;5.07;4.27;;;;;;;11.02;100.00;96345.50;6098056;23;20160;-78
2023/11/05 08:28:46;;;;;;;2.30;2.10;;;;;;;11.10;100.00;96355.53;6098403;23;20172;-78
2023/11/05 08:31:13;;;;;;;2.43;1.60;;;;;;;11.14;100.00;96371.78;6097831;23;20180;-77
2023/11/05 08:33:43;;;;;;;1.70;1.60;;;;;;;11.07;100.00;96372.19;6096329;23;20172;-78
2023/11/05 08:36:15;;;;;;;1.37;1.20;;;;;;;10.81;100.00;96377.31;6097827;23;20191;-78
2023/11/05 08:38:43;;;;;;;2.33;1.60;;;;;;;10.78;100.00;96401.22;6097761;23;20176;-77
2023/11/05 08:41:12;;;;;;;3.80;2.30;;;;;;;10.80;100.00;96428.47;6126611;23;20205;-78
2023/11/05 08:43:43;;;;;;;2.23;1.70;;;;;;;10.85;100.00;96445.25;6127549;23;20215;-78
2023/11/05 08:46:11;;;;;;;5.30;3.47;;;;;;;10.98;100.00;96454.34;6126954;23;20247;-78
2023/11/05 08:48:40;;;;;;;3.03;1.77;;;;;;;11.01;100.00;96459.13;6126822;23;20171;-78
2023/11/05 08:51:09;;;;;;;1.47;1.30;;;;;;;11.09;100.00;96449.59;6126956;23;20237;-78
2023/11/05 08:53:37;;;;;;;1.60;0.90;;;;;;;11.38;100.00;96421.34;6127272;23;20193;-77
2023/11/05 08:56:05;;;;;;;1.80;1.00;;;;;;;11.59;100.00;96400.22;6127158;23;20164;-77
2023/11/05 08:58:34;;;;;;;6.70;5.80;;;;;;;11.83;100.00;96395.41;6101890;23;20169;-78
2023/11/05 09:01:06;;;;;;;4.67;3.27;;;;;;;12.06;100.00;96416.84;6127547;23;20160;-78
2023/11/05 09:03:33;;;;;;;0.93;0.90;;;;;;;12.25;100.00;96436.22;6127745;23;20239;-78
2023/11/05 09:06:03;;;;;;;0.77;0.70;;;;;;;12.06;100.00;96436.41;6127635;23;20659;-78
2023/11/05 09:08:40;;;;;;;1.10;0.83;;;;;;;12.26;100.00;96445.88;6127713;23;20156;-77
2023/11/05 09:11:08;;;;;;;0.60;0.60;;;;;;;12.40;100.00;96448.47;6128101;23;20204;-78
2023/11/05 09:13:39;;;;;;;2.13;1.20;;;;;;;12.41;100.00;96447.38;6102821;23;20165;-78
2023/11/05 09:16:07;;;;;;;1.30;1.20;;;;;;;12.41;100.00;96420.53;6127524;23;20179;-78
2023/11/05 09:18:35;;;;;;;1.33;1.10;;;;;;;12.43;100.00;96415.63;6102704;23;20168;-78
2023/11/05 09:21:03;;;;;;;1.30;0.97;;;;;;;12.55;100.00;96397.81;6128676;23;20172;-77
2023/11/05 09:23:34;;;;;;;2.13;1.10;;;;;;;12.60;100.00;96392.31;6128884;23;20157;-77
2023/11/05 09:26:02;;;;;;;1.63;1.10;;;;;;;12.84;100.00;96408.03;6128696;23;20169;-78
2023/11/05 09:28:31;;;;;;;1.20;1.10;;;;;;;13.03;100.00;96421.22;6128286;23;20169;-78
2023/11/05 09:31:02;;;;;;;1.47;1.30;;;;;;;12.89;100.00;96429.41;6128845;23;20195;-78
2023/11/05 09:33:44;;;;;;;1.67;1.03;;;;;;;12.90;100.00;96433.66;6105957;23;20158;-78
2023/11/05 09:36:16;;;;;;;2.60;1.10;;;;;;;12.81;100.00;96411.38;6129088;23;20237;-78
2023/11/05 09:38:44;;;;;;;1.97;1.20;;;;;;;12.83;100.00;96400.31;6103721;23;20177;-78
2023/11/05 09:41:15;;;;;;;1.80;1.57;;;;;;;12.83;100.00;96394.94;6129001;23;20194;-78
2023/11/05 09:43:49;;;;;;;2.33;1.60;;;;;;;12.84;100.00;96394.59;6104921;23;20176;-78
2023/11/05 09:46:17;;;;;;;1.33;1.10;;;;;;;12.91;100.00;96394.16;6130068;23;20166;-79
2023/11/05 09:48:48;;;;;;;2.37;1.20;;;;;;;12.84;100.00;96394.59;6130020;23;20173;-78
2023/11/05 09:51:18;;;;;;;1.10;0.93;;;;;;;12.79;100.00;96397.44;6132458;23;20179;-78
2023/11/05 09:53:49;;;;;;;2.03;1.10;;;;;;;12.76;100.00;96400.75;6132442;23;20174;-79
2023/11/05 09:56:19;;;;;;;0.97;0.90;;;;;;;12.72;100.00;96405.16;6108061;23;20165;-79
2023/11/05 09:58:48;;;;;;;1.40;1.27;;;;;;;12.68;100.00;96412.28;6132972;23;20230;-78
2023/11/05 10:01:17;;;;;;;1.20;1.10;;;;;;;12.58;100.00;96425.97;6133327;23;20231;-79
2023/11/05 10:03:46;;;;;;;1.40;1.30;;;;;;;12.57;100.00;96435.13;6133527;23;20165;-78
2023/11/05 10:06:18;;;;;;;2.10;1.50;;;;;;;12.61;100.00;96428.03;6133267;23;20179;-79
2023/11/05 10:08:50;;;;;;;1.90;1.60;;;;;;;12.70;100.00;96420.78;6109592;23;20155;-79
2023/11/05 10:11:20;;;;;;;1.40;1.30;;;;;;;12.75;100.00;96426.81;6134215;23;20260;-79
2023/11/05 10:13:51;;;;;;;1.73;1.43;;;;;;;12.75;100.00;96428.72;6134543;23;20171;-78
2023/11/05 10:16:20;;;;;;;3.17;1.50;;;;;;;12.64;100.00;96436.28;6134649;23;20173;-79
2023/11/05 10:18:53;;;;;;;7.07;6.37;;;;;;;12.67;100.00;96450.97;6133809;23;20198;-79
2023/11/05 10:21:37;;;;;;;1.50;1.33;;;;;;;12.69;100.00;96456.84;6133916;23;20175;-79
2023/11/05 10:24:07;;;;;;;1.17;1.07;;;;;;;12.84;100.00;96460.97;6109398;23;20200;-79
2023/11/05 10:26:35;;;;;;;1.47;0.90;;;;;;;12.87;100.00;96455.00;6136284;23;20500;-79
2023/11/05 10:29:05;;;;;;;0.83;0.83;;;;;;;12.90;100.00;96447.09;6134656;23;20197;-78
2023/11/05 10:31:33;;;;;;;1.73;1.63;;;;;;;12.97;100.00;96452.03;6133496;23;20270;-78
2023/11/05 10:34:02;;;;;;;1.27;1.17;;;;;;;12.98;100.00;96448.22;6133334;23;20167;-78
2023/11/05 10:36:31;;;;;;;2.10;1.17;;;;;;;13.01;100.00;96453.78;6134659;23;20194;-79
2023/11/05 10:39:05;;;;;;;1.30;0.97;;;;;;;13.03;100.00;96448.09;6089278;23;20179;-79
2023/11/05 10:41:33;;;;;;;1.10;1.00;;;;;;;12.93;100.00;96443.78;6104378;23;20183;-79
2023/11/05 10:44:05;;;;;;;1.03;1.00;;;;;;;12.90;100.00;96447.09;6079149;23;20168;-79
2023/11/05 10:46:34;;;;;;;1.37;1.20;;;;;;;12.96;100.00;96443.19;6104397;23;20165;-79
2023/11/05 10:49:01;;;;;;;0.60;0.60;;;;;;;12.97;100.00;96444.75;6079297;23;20167;-79
2023/11/05 10:51:34;;;;;;;2.23;1.00;;;;;;;12.97;100.00;96433.22;6103397;23;20191;-78
2023/11/05 10:54:06;;;;;;;0.90;0.80;;;;;;;12.98;100.00;96424.84;6104941;23;20516;-78
2023/11/05 10:56:36;;;;;;;0.57;0.57;;;;;;;13.09;100.00;96428.84;6104233;23;20152;-78
2023/11/05 10:59:06;;;;;;;0.60;0.60;;;;;;;13.19;100.00;96422.41;6106715;23;20218;-79
2023/11/05 11:01:45;;;;;;;0.57;0.30;;;;;;;13.20;100.00;96422.06;6103994;23;20694;-80
2023/11/05 11:04:21;;;;;;;1.70;1.37;;;;;;;13.23;100.00;96423.34;6081706;23;20228;-79
2023/11/05 11:06:50;;;;;;;4.07;3.67;;;;;;;13.17;100.00;96417.31;6103647;23;20165;-79
2023/11/05 11:09:19;;;;;;;6.40;5.10;;;;;;;13.18;100.00;96416.22;6103677;23;20254;-79
2023/11/05 11:11:47;;;;;;;3.73;2.87;;;;;;;13.22;100.00;96419.06;6103031;23;20216;-79
2023/11/05 11:14:16;;;;;;;1.90;1.40;;;;;;;13.25;100.00;96409.59;6078488;23;20164;-79
2023/11/05 11:16:45;;;;;;;15.60;7.97;;;;;;;13.24;100.00;96416.88;6102225;23;20171;-79
2023/11/05 11:19:21;;;;;;;8.70;5.10;;;;;;;13.31;100.00;96429.84;6101518;23;20172;-78
2023/11/05 11:21:58;;;;;;;2.53;1.80;;;;;;;13.37;100.00;96437.47;6101853;23;20209;-79
2023/11/05 11:24:40;;;;;;;1.73;1.40;;;;;;;13.41;100.00;96445.69;6101075;23;20201;-78
2023/11/05 11:27:14;;;;;;;34.17;15.80;;;;;;;13.47;100.00;96439.84;6102407;23;20165;-79
2023/11/05 11:29:42;;;;;;;37.47;17.30;;;;;;;13.55;100.00;96438.25;6099313;23;20175;-79
2023/11/05 11:32:11;;;;;;;28.30;14.30;;;;;;;13.57;100.00;96441.44;6098715;23;20191;-80
2023/11/05 11:34:44;;;;;;;56.10;22.63;;;;;;;13.62;100.00;96452.03;6098270;23;20172;-79
2023/11/05 11:37:16;;;;;;;48.57;21.00;;;;;;;13.74;100.00;96448.72;6097956;23;20650;-79
2023/11/05 11:39:46;;;;;;;31.83;13.47;;;;;;;13.81;100.00;96465.19;6079976;23;20200;-79
2023/11/05 11:42:18;;;;;;;43.27;18.30;;;;;;;13.80;100.00;96485.91;6126621;23;20168;-79
2023/11/05 11:44:45;;;;;;;11.03;4.93;;;;;;;13.90;100.00;96488.31;6101625;23;20164;-79